createdAt,value
2022-12-03T00:00:23.002Z,100957.22
2022-12-03T00:05:21.703Z,100956.88
2022-12-03T00:10:20.475Z,100958.09
2022-12-03T00:15:19.261Z,100950.53
2022-12-03T00:20:21.272Z,100943.72
2022-12-03T00:25:20.163Z,100944.84
2022-12-03T00:30:18.976Z,100943.66
2022-12-03T00:35:17.780Z,100942.34
2022-12-03T00:40:16.575Z,100945.38
2022-12-03T00:45:15.430Z,100936.69
2022-12-03T00:50:14.237Z,100942.03
2022-12-03T00:55:13.118Z,100943.75
2022-12-03T01:00:13.476Z,100935.06
2022-12-03T01:05:12.277Z,100944.03
2022-12-03T01:10:11.642Z,100940.75
2022-12-03T01:15:10.727Z,100928.13
2022-12-03T01:20:10.206Z,100939.03
2022-12-03T01:25:09.385Z,100926.63
2022-12-03T01:30:08.547Z,100928.56
2022-12-03T01:35:07.704Z,100923.75
2022-12-03T01:40:08.404Z,100926.38
2022-12-03T01:45:11.335Z,100939.88
2022-12-03T01:50:42.210Z,100926.63
2022-12-03T01:55:46.954Z,100920.91
2022-12-03T02:00:47.414Z,100916.34
2022-12-03T02:05:46.144Z,100919.28
2022-12-03T02:10:44.873Z,100915.94
2022-12-03T02:15:43.841Z,100910.50
2022-12-03T02:20:59.278Z,100914.81
2022-12-03T02:25:57.955Z,100916.94
2022-12-03T02:30:56.752Z,100900.88
2022-12-03T02:36:00.419Z,100909.25
2022-12-03T02:41:10.890Z,100904.06
2022-12-03T02:46:09.611Z,100906.22
2022-12-03T02:51:10.331Z,100904.78
2022-12-03T02:56:09.987Z,100906.47
2022-12-03T03:01:09.781Z,100913.75
2022-12-03T03:06:09.407Z,100913.84
2022-12-03T03:11:08.508Z,100906.06
2022-12-03T03:16:08.246Z,100909.88
2022-12-03T03:21:07.719Z,100895.22
2022-12-03T03:26:08.792Z,100896.63
2022-12-03T03:31:09.528Z,100902.97
2022-12-03T03:36:09.397Z,100899.91
2022-12-03T03:41:11.258Z,100900.72
2022-12-03T03:46:11.252Z,100906.13
2022-12-03T03:51:12.446Z,100894.72
2022-12-03T03:56:12.048Z,100901.25
2022-12-03T04:01:13.258Z,100896.69
2022-12-03T04:06:12.062Z,100895.78
2022-12-03T04:11:29.318Z,100887.00
2022-12-03T04:16:28.032Z,100886.59
2022-12-03T04:21:45.230Z,100886.50
2022-12-03T04:27:02.556Z,100886.06
2022-12-03T04:32:19.928Z,100885.63
2022-12-03T04:37:18.781Z,100875.97
2022-12-03T04:42:17.612Z,100879.94
2022-12-03T04:47:21.616Z,100887.56
2022-12-03T04:52:21.132Z,100883.13
2022-12-03T04:57:19.853Z,100885.34
2022-12-03T05:02:18.670Z,100892.25
2022-12-03T05:07:17.449Z,100891.00
2022-12-03T05:12:16.171Z,100878.75
2022-12-03T05:17:14.882Z,100870.50
2022-12-03T05:22:13.568Z,100865.97
2022-12-03T05:27:12.272Z,100863.38
2022-12-03T05:32:11.019Z,100855.94
2022-12-03T05:37:09.921Z,100857.50
2022-12-03T05:42:28.539Z,100867.00
2022-12-03T05:47:27.903Z,100862.09
2022-12-03T05:52:26.628Z,100860.34
2022-12-03T05:57:26.156Z,100857.50
2022-12-03T06:02:24.953Z,100864.78
2022-12-03T06:07:23.760Z,100859.94
2022-12-03T06:12:22.643Z,100858.06
2022-12-03T06:17:21.957Z,100858.59
2022-12-03T06:22:20.802Z,100859.19
2022-12-03T06:27:19.553Z,100863.69
2022-12-03T06:32:18.314Z,100863.50
2022-12-03T06:37:16.997Z,100856.56
2022-12-03T06:42:15.767Z,100859.25
2022-12-03T06:47:14.543Z,100858.25
2022-12-03T06:52:13.295Z,100864.88
2022-12-03T06:57:12.072Z,100867.25
2022-12-03T07:02:12.682Z,100867.69
2022-12-03T07:07:11.492Z,100862.47
2022-12-03T07:12:11.016Z,100864.53
2022-12-03T07:17:09.715Z,100865.50
2022-12-03T07:22:08.552Z,100863.91
2022-12-03T07:27:07.641Z,100858.41
2022-12-03T07:32:06.387Z,100862.38
2022-12-03T07:37:05.094Z,100859.47
2022-12-03T07:42:04.001Z,100860.50
2022-12-03T07:47:02.958Z,100864.69
2022-12-03T07:52:01.843Z,100865.44
2022-12-03T07:57:01.789Z,100871.13
2022-12-03T08:02:00.894Z,100865.34
2022-12-03T08:06:59.883Z,100858.50
2022-12-03T08:12:01.403Z,100863.25
2022-12-03T08:17:00.181Z,100861.81
2022-12-03T08:22:01.532Z,100851.66
2022-12-03T08:27:01.010Z,100844.38
2022-12-03T08:31:59.870Z,100842.94
2022-12-03T08:37:09.002Z,100845.53
2022-12-03T08:42:30.528Z,100851.63
2022-12-03T08:47:29.582Z,100850.91
2022-12-03T08:52:33.533Z,100853.50
2022-12-03T08:57:34.898Z,100858.22
2022-12-03T09:02:34.664Z,100855.06
2022-12-03T09:07:33.549Z,100857.53
2022-12-03T09:12:32.402Z,100857.59
2022-12-03T09:17:31.111Z,100855.97
2022-12-03T09:22:29.989Z,100857.97
2022-12-03T09:27:28.680Z,100859.28
2022-12-03T09:32:27.507Z,100855.00
2022-12-03T09:37:26.349Z,100851.06
2022-12-03T09:42:25.972Z,100856.69
2022-12-03T09:47:25.311Z,100853.94
2022-12-03T09:52:28.945Z,100849.34
2022-12-03T09:57:27.697Z,100853.06
2022-12-03T10:02:29.926Z,100844.81
2022-12-03T10:07:28.764Z,100846.00
2022-12-03T10:12:27.777Z,100834.47
2022-12-03T10:17:29.080Z,100831.72
2022-12-03T10:22:27.865Z,100826.19
2022-12-03T10:27:30.711Z,100822.78
2022-12-03T10:32:42.023Z,100817.47
2022-12-03T10:38:02.716Z,100814.81
2022-12-03T10:43:19.608Z,100805.81
2022-12-03T10:48:27.536Z,100806.94
2022-12-03T10:53:30.201Z,100809.53
2022-12-03T10:58:36.297Z,100806.75
2022-12-03T11:03:36.366Z,100807.47
2022-12-03T11:08:37.096Z,100809.25
2022-12-03T11:13:35.851Z,100795.75
2022-12-03T11:18:37.724Z,100789.59
2022-12-03T11:23:45.614Z,100791.72
2022-12-03T11:28:47.379Z,100783.38
2022-12-03T11:33:46.083Z,100780.53
2022-12-03T11:38:52.898Z,100771.53
2022-12-03T11:43:52.498Z,100767.34
2022-12-03T11:48:53.339Z,100764.38
2022-12-03T11:53:55.258Z,100762.63
2022-12-03T11:59:02.309Z,100751.47
2022-12-03T12:04:01.268Z,100758.41
2022-12-03T12:09:01.079Z,100750.00
2022-12-03T12:14:12.955Z,100750.66
2022-12-03T12:19:38.014Z,100749.50
2022-12-03T12:24:43.560Z,100742.25
2022-12-03T12:29:45.768Z,100734.38
2022-12-03T12:34:50.429Z,100726.22
2022-12-03T12:39:53.724Z,100727.28
2022-12-03T12:44:52.556Z,100719.25
2022-12-03T12:49:52.009Z,100709.88
2022-12-03T12:54:50.865Z,100705.25
2022-12-03T12:59:50.835Z,100701.66
2022-12-03T13:04:49.662Z,100694.34
2022-12-03T13:09:54.663Z,100697.16
2022-12-03T13:14:59.341Z,100692.41
2022-12-03T13:20:07.255Z,100688.84
2022-12-03T13:25:59.223Z,100689.53
2022-12-03T13:31:00.947Z,100685.94
2022-12-03T13:35:59.567Z,100691.09
2022-12-03T13:41:03.799Z,100692.59
2022-12-03T13:46:03.215Z,100694.19
2022-12-03T13:51:14.889Z,100693.41
2022-12-03T13:56:30.908Z,100687.97
2022-12-03T14:01:30.293Z,100683.81
2022-12-03T14:06:29.086Z,100689.34
2022-12-03T14:11:46.556Z,100681.47
2022-12-03T14:16:45.357Z,100678.50
2022-12-03T14:21:44.160Z,100688.50
2022-12-03T14:26:42.907Z,100680.56
2022-12-03T14:31:41.807Z,100678.34
2022-12-03T14:36:40.569Z,100678.72
2022-12-03T14:41:57.774Z,100681.72
2022-12-03T14:46:57.494Z,100682.31
2022-12-03T14:51:56.468Z,100689.19
2022-12-03T14:56:55.221Z,100684.81
2022-12-03T15:01:54.453Z,100685.59
2022-12-03T15:06:53.395Z,100688.88
2022-12-03T15:11:52.243Z,100686.78
2022-12-03T15:16:51.120Z,100682.75
2022-12-03T15:21:49.949Z,100689.81
2022-12-03T15:26:49.625Z,100683.91
2022-12-03T15:31:48.421Z,100688.97
2022-12-03T15:36:47.210Z,100686.06
2022-12-03T15:41:46.011Z,100687.56
2022-12-03T15:46:44.999Z,100676.81
2022-12-03T15:51:43.900Z,100683.13
2022-12-03T15:56:42.770Z,100681.88
2022-12-03T16:01:41.828Z,100682.91
2022-12-03T16:06:40.624Z,100681.16
2022-12-03T16:11:39.795Z,100677.38
2022-12-03T16:16:38.939Z,100677.50
2022-12-03T16:21:38.707Z,100676.34
2022-12-03T16:26:37.969Z,100675.66
2022-12-03T16:31:37.105Z,100666.31
2022-12-03T16:36:36.871Z,100671.44
2022-12-03T16:41:35.637Z,100674.34
2022-12-03T16:46:37.296Z,100665.94
2022-12-03T16:51:36.343Z,100663.28
2022-12-03T16:56:35.249Z,100661.25
2022-12-03T17:01:34.362Z,100661.41
2022-12-03T17:06:36.678Z,100664.94
2022-12-03T17:11:37.978Z,100654.63
2022-12-03T17:16:36.909Z,100669.22
2022-12-03T17:21:35.886Z,100648.22
2022-12-03T17:26:34.857Z,100653.44
2022-12-03T17:31:39.958Z,100649.88
2022-12-03T17:36:40.760Z,100650.59
2022-12-03T17:41:39.469Z,100640.00
2022-12-03T17:46:39.217Z,100638.03
2022-12-03T17:51:41.379Z,100643.44
2022-12-03T17:56:43.577Z,100640.16
2022-12-03T18:01:43.776Z,100631.22
2022-12-03T18:06:43.168Z,100628.81
2022-12-03T18:11:42.094Z,100625.03
2022-12-03T18:16:41.411Z,100623.19
2022-12-03T18:21:40.418Z,100625.28
2022-12-03T18:26:54.428Z,100627.19
2022-12-03T18:31:53.323Z,100628.41
2022-12-03T18:36:52.621Z,100632.00
2022-12-03T18:41:52.112Z,100633.97
2022-12-03T18:46:53.859Z,100633.38
2022-12-03T18:51:58.927Z,100623.94
2022-12-03T18:56:57.966Z,100610.78
2022-12-03T19:01:56.849Z,100627.59
2022-12-03T19:06:55.775Z,100628.34
2022-12-03T19:11:54.665Z,100625.22
2022-12-03T19:16:53.548Z,100626.47
2022-12-03T19:21:52.669Z,100633.81
2022-12-03T19:26:54.813Z,100633.09
2022-12-03T19:31:53.973Z,100615.03
2022-12-03T19:36:52.960Z,100629.28
2022-12-03T19:41:54.611Z,100630.13
2022-12-03T19:46:54.237Z,100635.72
2022-12-03T19:51:53.831Z,100629.88
2022-12-03T19:56:52.746Z,100629.94
2022-12-03T20:01:51.655Z,100624.69
2022-12-03T20:06:50.636Z,100629.09
2022-12-03T20:11:54.483Z,100624.03
2022-12-03T20:16:53.496Z,100622.66
2022-12-03T20:21:54.379Z,100619.06
2022-12-03T20:26:55.418Z,100620.13
2022-12-03T20:31:54.229Z,100616.16
2022-12-03T20:36:53.094Z,100614.44
2022-12-03T20:41:52.040Z,100612.75
2022-12-03T20:46:50.826Z,100609.41
2022-12-03T20:51:50.295Z,100607.72
2022-12-03T20:56:49.386Z,100603.06
2022-12-03T21:01:48.231Z,100601.69
2022-12-03T21:06:47.038Z,100612.88
2022-12-03T21:11:45.877Z,100611.81
2022-12-03T21:22:08.188Z,100605.59
2022-12-03T21:27:06.920Z,100603.25
2022-12-03T21:32:05.658Z,100593.66
2022-12-03T21:37:04.602Z,100595.31
2022-12-03T21:42:19.123Z,100597.59
2022-12-03T21:47:22.526Z,100596.19
2022-12-03T21:52:21.253Z,100588.56
2022-12-03T21:57:20.361Z,100599.19
2022-12-03T22:02:19.233Z,100591.28
2022-12-03T22:07:18.021Z,100595.69
2022-12-03T22:12:16.809Z,100595.75
2022-12-03T22:17:15.702Z,100598.81
2022-12-03T22:22:14.476Z,100599.69
2022-12-03T22:27:14.576Z,100597.38
2022-12-03T22:32:13.288Z,100582.69
2022-12-03T22:37:12.223Z,100589.66
2022-12-03T22:42:11.043Z,100586.66
2022-12-03T22:47:09.791Z,100585.38
2022-12-03T22:52:08.574Z,100579.06
2022-12-03T22:57:07.309Z,100583.25
2022-12-03T23:02:06.031Z,100575.72
2022-12-03T23:07:06.106Z,100558.06
2022-12-03T23:12:05.166Z,100552.72
2022-12-03T23:17:04.782Z,100555.16
2022-12-03T23:22:03.723Z,100547.56
2022-12-03T23:27:02.502Z,100540.19
2022-12-03T23:32:01.169Z,100539.00
2022-12-03T23:36:59.902Z,100537.16
2022-12-03T23:41:58.543Z,100530.63
2022-12-03T23:46:57.447Z,100533.19
2022-12-03T23:51:56.278Z,100528.88
2022-12-03T23:56:55.025Z,100535.03
